sensor_id;sensor_type;location;lat;lon;timestamp;pressure;altitude;pressure_sealevel;temperature;humidity
73934;BME280;62286;50.528;18.284;2022-12-05T00:02:18;99427.25;;;22.71;45.86
73934;BME280;62286;50.528;18.284;2022-12-05T00:04:43;99424.88;;;22.70;45.63
73934;BME280;62286;50.528;18.284;2022-12-05T00:07:08;99424.09;;;22.69;45.94
73934;BME280;62286;50.528;18.284;2022-12-05T00:09:33;99414.13;;;22.68;45.63
73934;BME280;62286;50.528;18.284;2022-12-05T00:11:58;99409.31;;;22.69;45.84
73934;BME280;62286;50.528;18.284;2022-12-05T00:14:23;99410.53;;;22.68;45.61
73934;BME280;62286;50.528;18.284;2022-12-05T00:16:48;99405.75;;;22.68;45.83
73934;BME280;62286;50.528;18.284;2022-12-05T00:19:14;99413.75;;;22.66;45.84
73934;BME280;62286;50.528;18.284;2022-12-05T00:21:39;99403.34;;;22.67;45.94
73934;BME280;62286;50.528;18.284;2022-12-05T00:24:05;99416.53;;;22.66;45.91
73934;BME280;62286;50.528;18.284;2022-12-05T00:26:31;99409.75;;;22.67;45.91
73934;BME280;62286;50.528;18.284;2022-12-05T00:28:56;99419.31;;;22.66;45.56
73934;BME280;62286;50.528;18.284;2022-12-05T00:31:22;99420.13;;;22.67;45.84
73934;BME280;62286;50.528;18.284;2022-12-05T00:33:48;99422.91;;;22.67;45.73
73934;BME280;62286;50.528;18.284;2022-12-05T00:36:14;99423.28;;;22.69;45.86
73934;BME280;62286;50.528;18.284;2022-12-05T00:38:40;99430.47;;;22.70;45.63
73934;BME280;62286;50.528;18.284;2022-12-05T00:41:10;99429.25;;;22.71;45.46
73934;BME280;62286;50.528;18.284;2022-12-05T00:43:35;99423.66;;;22.71;45.56
73934;BME280;62286;50.528;18.284;2022-12-05T00:46:01;99428.81;;;22.72;45.81
73934;BME280;62286;50.528;18.284;2022-12-05T00:48:27;99429.25;;;22.71;45.44
73934;BME280;62286;50.528;18.284;2022-12-05T00:50:58;99429.25;;;22.71;45.83
73934;BME280;62286;50.528;18.284;2022-12-05T00:53:23;99427.66;;;22.70;45.84
73934;BME280;62286;50.528;18.284;2022-12-05T00:55:49;99431.69;;;22.69;45.66
73934;BME280;62286;50.528;18.284;2022-12-05T00:58:14;99432.47;;;22.69;45.55
73934;BME280;62286;50.528;18.284;2022-12-05T01:00:39;99418.94;;;22.68;45.48
73934;BME280;62286;50.528;18.284;2022-12-05T01:03:04;99420.50;;;22.69;45.54
73934;BME280;62286;50.528;18.284;2022-12-05T01:05:29;99426.88;;;22.69;45.44
73934;BME280;62286;50.528;18.284;2022-12-05T01:07:54;99418.06;;;22.71;45.75
73934;BME280;62286;50.528;18.284;2022-12-05T01:10:19;99424.88;;;22.70;45.57
73934;BME280;62286;50.528;18.284;2022-12-05T01:12:44;99422.88;;;22.70;45.53
73934;BME280;62286;50.528;18.284;2022-12-05T01:15:10;99421.66;;;22.71;45.54
73934;BME280;62286;50.528;18.284;2022-12-05T01:17:35;99419.66;;;22.72;45.54
73934;BME280;62286;50.528;18.284;2022-12-05T01:20:00;99426.41;;;22.74;45.40
73934;BME280;62286;50.528;18.284;2022-12-05T01:22:25;99422.00;;;22.73;45.56
73934;BME280;62286;50.528;18.284;2022-12-05T01:24:50;99426.00;;;22.76;45.53
73934;BME280;62286;50.528;18.284;2022-12-05T01:27:15;99421.97;;;22.77;45.53
73934;BME280;62286;50.528;18.284;2022-12-05T01:29:40;99418.75;;;22.78;45.52
73934;BME280;62286;50.528;18.284;2022-12-05T01:32:05;99427.13;;;22.78;45.27
73934;BME280;62286;50.528;18.284;2022-12-05T01:34:30;99426.34;;;22.78;45.59
73934;BME280;62286;50.528;18.284;2022-12-05T01:36:56;99436.31;;;22.79;45.72
73934;BME280;62286;50.528;18.284;2022-12-05T01:39:21;99438.72;;;22.80;45.57
73934;BME280;62286;50.528;18.284;2022-12-05T01:41:47;99444.28;;;22.80;45.56
73934;BME280;62286;50.528;18.284;2022-12-05T01:46:47;99461.41;;;22.82;45.55
73934;BME280;62286;50.528;18.284;2022-12-05T01:49:18;99449.81;;;22.84;45.54
73934;BME280;62286;50.528;18.284;2022-12-05T01:51:45;99449.81;;;22.84;45.21
73934;BME280;62286;50.528;18.284;2022-12-05T01:54:11;99445.09;;;22.81;45.42
73934;BME280;62286;50.528;18.284;2022-12-05T01:56:37;99447.88;;;22.81;45.46
73934;BME280;62286;50.528;18.284;2022-12-05T01:59:04;99447.88;;;22.81;45.57
73934;BME280;62286;50.528;18.284;2022-12-05T02:01:31;99447.09;;;22.80;45.35
73934;BME280;62286;50.528;18.284;2022-12-05T02:03:56;99439.09;;;22.79;45.21
73934;BME280;62286;50.528;18.284;2022-12-05T02:06:22;99435.53;;;22.78;45.44
73934;BME280;62286;50.528;18.284;2022-12-05T02:08:48;99437.53;;;22.78;45.30
73934;BME280;62286;50.528;18.284;2022-12-05T02:11:14;99442.31;;;22.77;45.22
73934;BME280;62286;50.528;18.284;2022-12-05T02:21:22;99423.91;;;22.80;45.42
73934;BME280;62286;50.528;18.284;2022-12-05T02:36:10;99410.69;;;22.84;45.41
73934;BME280;62286;50.528;18.284;2022-12-05T02:43:37;99410.69;;;22.84;44.95
73934;BME280;62286;50.528;18.284;2022-12-05T02:46:07;99404.31;;;22.83;45.11
73934;BME280;62286;50.528;18.284;2022-12-05T02:48:33;99402.75;;;22.82;45.00
73934;BME280;62286;50.528;18.284;2022-12-05T02:51:00;99406.31;;;22.83;45.37
73934;BME280;62286;50.528;18.284;2022-12-05T02:53:26;99397.94;;;22.83;44.96
73934;BME280;62286;50.528;18.284;2022-12-05T02:55:53;99390.78;;;22.82;45.06
73934;BME280;62286;50.528;18.284;2022-12-05T02:58:23;99395.56;;;22.81;45.07
73934;BME280;62286;50.528;18.284;2022-12-05T03:00:52;99394.00;;;22.80;45.32
73934;BME280;62286;50.528;18.284;2022-12-05T03:03:18;99407.16;;;22.80;45.11
73934;BME280;62286;50.528;18.284;2022-12-05T03:05:47;99403.56;;;22.79;45.10
73934;BME280;62286;50.528;18.284;2022-12-05T03:08:16;99404.78;;;22.78;45.26
73934;BME280;62286;50.528;18.284;2022-12-05T03:10:43;99388.81;;;22.79;45.16
73934;BME280;62286;50.528;18.284;2022-12-05T03:13:11;99393.19;;;22.80;45.01
73934;BME280;62286;50.528;18.284;2022-12-05T03:15:39;99389.19;;;22.81;45.28
73934;BME280;62286;50.528;18.284;2022-12-05T03:18:10;99403.16;;;22.81;45.03
73934;BME280;62286;50.528;18.284;2022-12-05T03:20:46;99391.19;;;22.80;45.13
73934;BME280;62286;50.528;18.284;2022-12-05T03:25:45;99386.41;;;22.81;45.11
73934;BME280;62286;50.528;18.284;2022-12-05T03:30:48;99388.75;;;22.82;45.22
73934;BME280;62286;50.528;18.284;2022-12-05T03:33:17;99390.34;;;22.83;45.24
73934;BME280;62286;50.528;18.284;2022-12-05T03:35:56;99377.59;;;22.82;44.84
73934;BME280;62286;50.528;18.284;2022-12-05T03:38:26;99380.38;;;22.82;44.89
73934;BME280;62286;50.528;18.284;2022-12-05T03:41:06;99389.97;;;22.81;44.92
73934;BME280;62286;50.528;18.284;2022-12-05T03:43:44;99389.16;;;22.27;44.47
73934;BME280;62286;50.528;18.284;2022-12-05T03:46:17;99391.44;;;21.98;43.65
73934;BME280;62286;50.528;18.284;2022-12-05T03:51:10;99387.06;;;22.35;44.11
73934;BME280;62286;50.528;18.284;2022-12-05T03:53:44;99386.97;;;22.42;43.93
73934;BME280;62286;50.528;18.284;2022-12-05T03:56:13;99388.47;;;22.46;44.05
73934;BME280;62286;50.528;18.284;2022-12-05T03:59:43;99390.44;;;22.49;43.88
73934;BME280;62286;50.528;18.284;2022-12-05T04:01:36;99397.97;;;22.52;43.60
73934;BME280;62286;50.528;18.284;2022-12-05T04:04:11;99394.78;;;22.54;43.88
73934;BME280;62286;50.528;18.284;2022-12-05T04:06:38;99403.94;;;22.54;43.90
73934;BME280;62286;50.528;18.284;2022-12-05T04:09:04;99410.31;;;22.55;43.74
73934;BME280;62286;50.528;18.284;2022-12-05T04:11:32;99406.75;;;22.54;43.73
73934;BME280;62286;50.528;18.284;2022-12-05T04:14:00;99408.75;;;22.54;43.75
73934;BME280;62286;50.528;18.284;2022-12-05T04:17:03;99400.38;;;22.54;43.58
73934;BME280;62286;50.528;18.284;2022-12-05T04:21:46;99396.75;;;22.53;43.30
73934;BME280;62286;50.528;18.284;2022-12-05T04:24:12;99398.75;;;22.53;43.56
73934;BME280;62286;50.528;18.284;2022-12-05T04:26:42;99389.59;;;22.52;43.38
73934;BME280;62286;50.528;18.284;2022-12-05T04:29:28;99386.78;;;22.52;43.57
73934;BME280;62286;50.528;18.284;2022-12-05T04:31:57;99379.63;;;22.51;43.19
73934;BME280;62286;50.528;18.284;2022-12-05T04:34:24;99373.25;;;22.51;43.43
73934;BME280;62286;50.528;18.284;2022-12-05T04:36:55;99376.06;;;22.51;43.10
73934;BME280;62286;50.528;18.284;2022-12-05T04:39:43;99376.06;;;22.51;43.35
73934;BME280;62286;50.528;18.284;2022-12-05T04:42:13;99368.88;;;22.50;43.32
73934;BME280;62286;50.528;18.284;2022-12-05T04:44:45;99369.25;;;22.52;43.48
73934;BME280;62286;50.528;18.284;2022-12-05T04:47:12;99357.28;;;22.51;43.19
73934;BME280;62286;50.528;18.284;2022-12-05T04:49:39;99352.50;;;22.52;42.94
73934;BME280;62286;50.528;18.284;2022-12-05T04:52:08;99357.66;;;22.53;42.99
73934;BME280;62286;50.528;18.284;2022-12-05T04:54:39;99352.50;;;22.52;43.19
73934;BME280;62286;50.528;18.284;2022-12-05T04:57:11;99354.50;;;22.51;43.26
73934;BME280;62286;50.528;18.284;2022-12-05T04:59:37;99354.50;;;22.51;43.24
73934;BME280;62286;50.528;18.284;2022-12-05T05:02:06;99343.31;;;22.51;42.98
73934;BME280;62286;50.528;18.284;2022-12-05T05:04:44;99338.94;;;22.50;42.88
73934;BME280;62286;50.528;18.284;2022-12-05T05:07:11;99337.38;;;22.49;42.62
73934;BME280;62286;50.528;18.284;2022-12-05T05:09:36;99339.75;;;22.51;42.74
73934;BME280;62286;50.528;18.284;2022-12-05T05:12:02;99331.34;;;22.51;42.67
73934;BME280;62286;50.528;18.284;2022-12-05T05:14:27;99325.00;;;22.50;42.93
73934;BME280;62286;50.528;18.284;2022-12-05T05:16:52;99334.16;;;22.51;42.69
73934;BME280;62286;50.528;18.284;2022-12-05T05:19:18;99327.00;;;22.50;42.85
73934;BME280;62286;50.528;18.284;2022-12-05T05:21:43;99327.78;;;22.50;42.55
73934;BME280;62286;50.528;18.284;2022-12-05T05:24:09;99328.56;;;22.51;42.81
73934;BME280;62286;50.528;18.284;2022-12-05T05:26:36;99335.38;;;22.50;42.81
73934;BME280;62286;50.528;18.284;2022-12-05T05:29:02;99331.00;;;22.49;42.66
73934;BME280;62286;50.528;18.284;2022-12-05T05:31:27;99328.63;;;22.47;42.93
73934;BME280;62286;50.528;18.284;2022-12-05T05:33:54;99327.41;;;22.48;42.62
73934;BME280;62286;50.528;18.284;2022-12-05T05:36:19;99317.47;;;22.47;42.89
73934;BME280;62286;50.528;18.284;2022-12-05T05:38:46;99315.47;;;22.48;42.71
73934;BME280;62286;50.528;18.284;2022-12-05T05:41:13;99316.25;;;22.48;42.78
73934;BME280;62286;50.528;18.284;2022-12-05T05:43:39;99313.47;;;22.48;42.48
73934;BME280;62286;50.528;18.284;2022-12-05T05:46:04;99314.25;;;22.49;42.48
73934;BME280;62286;50.528;18.284;2022-12-05T05:48:29;99316.25;;;22.48;42.50
73934;BME280;62286;50.528;18.284;2022-12-05T05:50:55;99311.44;;;22.49;42.79
73934;BME280;62286;50.528;18.284;2022-12-05T05:53:22;99322.19;;;22.50;42.56
73934;BME280;62286;50.528;18.284;2022-12-05T05:55:47;99319.41;;;22.50;42.43
73934;BME280;62286;50.528;18.284;2022-12-05T05:58:12;99329.78;;;22.50;42.48
73934;BME280;62286;50.528;18.284;2022-12-05T06:00:37;99328.56;;;22.51;42.65
73934;BME280;62286;50.528;18.284;2022-12-05T06:03:02;99325.78;;;22.51;42.56
73934;BME280;62286;50.528;18.284;2022-12-05T06:05:27;99334.16;;;22.51;42.27
73934;BME280;62286;50.528;18.284;2022-12-05T06:07:53;99334.16;;;22.51;42.41
73934;BME280;62286;50.528;18.284;2022-12-05T06:10:18;99337.72;;;22.51;42.17
73934;BME280;62286;50.528;18.284;2022-12-05T06:12:43;99342.09;;;22.52;42.44
73934;BME280;62286;50.528;18.284;2022-12-05T06:15:08;99349.25;;;22.53;42.17
73934;BME280;62286;50.528;18.284;2022-12-05T06:17:33;99345.69;;;22.53;42.41
73934;BME280;62286;50.528;18.284;2022-12-05T06:19:58;99350.88;;;22.54;42.18
73934;BME280;62286;50.528;18.284;2022-12-05T06:22:24;99363.22;;;22.53;42.22
73934;BME280;62286;50.528;18.284;2022-12-05T06:24:49;99356.47;;;22.54;42.38
73934;BME280;62286;50.528;18.284;2022-12-05T06:27:14;99366.03;;;22.53;42.37
73934;BME280;62286;50.528;18.284;2022-12-05T06:29:39;99370.44;;;22.54;42.26
73934;BME280;62286;50.528;18.284;2022-12-05T06:32:04;99366.84;;;22.54;42.47
73934;BME280;62286;50.528;18.284;2022-12-05T06:34:29;99366.84;;;22.54;42.40
73934;BME280;62286;50.528;18.284;2022-12-05T06:36:54;99377.19;;;22.53;42.09
73934;BME280;62286;50.528;18.284;2022-12-05T06:39:19;99382.78;;;22.53;42.34
73934;BME280;62286;50.528;18.284;2022-12-05T06:41:45;99384.38;;;22.54;42.47
73934;BME280;62286;50.528;18.284;2022-12-05T06:44:10;99394.78;;;22.54;42.27
73934;BME280;62286;50.528;18.284;2022-12-05T06:46:35;99384.78;;;22.53;42.29
73934;BME280;62286;50.528;18.284;2022-12-05T06:49:00;99386.00;;;22.52;42.23
73934;BME280;62286;50.528;18.284;2022-12-05T06:51:25;99387.59;;;22.53;42.16
73934;BME280;62286;50.528;18.284;2022-12-05T06:53:50;99382.78;;;22.53;42.40
73934;BME280;62286;50.528;18.284;2022-12-05T06:56:16;99383.59;;;22.54;42.31
73934;BME280;62286;50.528;18.284;2022-12-05T06:58:42;99387.97;;;22.55;42.19
73934;BME280;62286;50.528;18.284;2022-12-05T07:01:11;99380.81;;;22.54;42.25
73934;BME280;62286;50.528;18.284;2022-12-05T07:03:36;99369.63;;;22.54;42.22
73934;BME280;62286;50.528;18.284;2022-12-05T07:06:02;99376.00;;;22.54;42.03
73934;BME280;62286;50.528;18.284;2022-12-05T07:08:28;99373.22;;;22.54;42.40
73934;BME280;62286;50.528;18.284;2022-12-05T07:10:53;99366.84;;;22.54;42.25
73934;BME280;62286;50.528;18.284;2022-12-05T07:13:18;99366.84;;;22.54;42.27
73934;BME280;62286;50.528;18.284;2022-12-05T07:15:46;99363.22;;;22.53;42.23
73934;BME280;62286;50.528;18.284;2022-12-05T07:18:12;99382.78;;;22.53;41.97
73934;BME280;62286;50.528;18.284;2022-12-05T07:20:37;99377.19;;;22.53;42.31
73934;BME280;62286;50.528;18.284;2022-12-05T07:23:02;99372.44;;;22.54;42.04
73934;BME280;62286;50.528;18.284;2022-12-05T07:25:27;99364.41;;;22.56;42.17
73934;BME280;62286;50.528;18.284;2022-12-05T07:27:52;99369.22;;;22.55;41.97
73934;BME280;62286;50.528;18.284;2022-12-05T07:30:17;99377.59;;;22.55;41.84
73934;BME280;62286;50.528;18.284;2022-12-05T07:32:43;99370.00;;;22.56;42.28
73934;BME280;62286;50.528;18.284;2022-12-05T07:35:08;99370.00;;;22.56;41.83
73934;BME280;62286;50.528;18.284;2022-12-05T07:37:33;99376.38;;;22.56;42.18
73934;BME280;62286;50.528;18.284;2022-12-05T07:39:58;99378.75;;;22.58;41.93
73934;BME280;62286;50.528;18.284;2022-12-05T07:42:23;99376.72;;;22.58;42.24
73934;BME280;62286;50.528;18.284;2022-12-05T07:44:48;99381.53;;;22.58;41.93
73934;BME280;62286;50.528;18.284;2022-12-05T07:47:13;99380.75;;;22.57;41.79
73934;BME280;62286;50.528;18.284;2022-12-05T07:49:39;99371.63;;;22.53;42.00
73934;BME280;62286;50.528;18.284;2022-12-05T07:52:04;99359.72;;;22.49;42.15
73934;BME280;62286;50.528;18.284;2022-12-05T07:54:29;99360.19;;;22.44;42.14
73934;BME280;62286;50.528;18.284;2022-12-05T07:56:54;99362.63;;;22.42;41.97
73934;BME280;62286;50.528;18.284;2022-12-05T07:59:19;99365.75;;;22.44;42.21
73934;BME280;62286;50.528;18.284;2022-12-05T08:01:44;99357.75;;;22.46;42.17
73934;BME280;62286;50.528;18.284;2022-12-05T08:04:09;99356.56;;;22.47;41.91
73934;BME280;62286;50.528;18.284;2022-12-05T08:06:35;99369.31;;;22.48;41.83
73934;BME280;62286;50.528;18.284;2022-12-05T08:09:00;99369.31;;;22.48;42.09
73934;BME280;62286;50.528;18.284;2022-12-05T08:11:27;99370.88;;;22.49;41.80
73934;BME280;62286;50.528;18.284;2022-12-05T08:13:52;99365.31;;;22.49;42.15
73934;BME280;62286;50.528;18.284;2022-12-05T08:16:19;99372.91;;;22.49;41.66
73934;BME280;62286;50.528;18.284;2022-12-05T08:18:44;99374.47;;;22.50;42.11
73934;BME280;62286;50.528;18.284;2022-12-05T08:21:16;99382.44;;;22.51;41.67
73934;BME280;62286;50.528;18.284;2022-12-05T08:23:42;99379.63;;;22.51;41.73
73934;BME280;62286;50.528;18.284;2022-12-05T08:28:32;99393.97;;;22.53;41.95
73934;BME280;62286;50.528;18.284;2022-12-05T08:33:29;99378.81;;;22.54;41.95
73934;BME280;62286;50.528;18.284;2022-12-05T08:35:54;99383.19;;;22.55;41.77
73934;BME280;62286;50.528;18.284;2022-12-05T08:38:19;99394.34;;;22.55;41.96
73934;BME280;62286;50.528;18.284;2022-12-05T08:40:44;99395.56;;;22.54;42.07
73934;BME280;62286;50.528;18.284;2022-12-05T08:43:09;99403.53;;;22.56;41.76
73934;BME280;62286;50.528;18.284;2022-12-05T08:45:34;99405.53;;;22.55;41.88
73934;BME280;62286;50.528;18.284;2022-12-05T08:48:00;99402.72;;;22.55;41.95
73934;BME280;62286;50.528;18.284;2022-12-05T08:50:25;99401.50;;;22.56;41.92
73934;BME280;62286;50.528;18.284;2022-12-05T08:52:50;99399.50;;;22.57;41.62
73934;BME280;62286;50.528;18.284;2022-12-05T08:55:15;99398.72;;;22.56;41.81
73934;BME280;62286;50.528;18.284;2022-12-05T08:57:40;99401.50;;;22.56;41.82
73934;BME280;62286;50.528;18.284;2022-12-05T09:00:05;99402.31;;;22.57;41.74
73934;BME280;62286;50.528;18.284;2022-12-05T20:46:33;99301.06;;;23.23;40.45
73934;BME280;62286;50.528;18.284;2022-12-05T20:48:59;99295.91;;;23.22;40.81
73934;BME280;62286;50.528;18.284;2022-12-05T20:51:25;99291.88;;;23.23;40.49
73934;BME280;62286;50.528;18.284;2022-12-05T20:53:51;99287.88;;;23.24;40.74
73934;BME280;62286;50.528;18.284;2022-12-05T20:56:19;99290.66;;;23.24;40.40
73934;BME280;62286;50.528;18.284;2022-12-05T20:58:45;99294.25;;;23.24;40.57
73934;BME280;62286;50.528;18.284;2022-12-05T21:01:11;99284.28;;;23.23;40.47
73934;BME280;62286;50.528;18.284;2022-12-05T21:03:40;99288.75;;;23.21;40.44
73934;BME280;62286;50.528;18.284;2022-12-05T21:06:07;99289.13;;;23.19;40.44
73934;BME280;62286;50.528;18.284;2022-12-05T21:08:32;99281.19;;;23.18;40.50
73934;BME280;62286;50.528;18.284;2022-12-05T21:10:57;99283.63;;;23.16;40.76
73934;BME280;62286;50.528;18.284;2022-12-05T21:13:22;99277.25;;;23.15;40.53
73934;BME280;62286;50.528;18.284;2022-12-05T21:15:47;99275.69;;;23.14;40.56
73934;BME280;62286;50.528;18.284;2022-12-05T21:18:12;99285.25;;;23.13;41.03
73934;BME280;62286;50.528;18.284;2022-12-05T21:20:37;99283.69;;;23.12;40.97
73934;BME280;62286;50.528;18.284;2022-12-05T21:23:02;99269.72;;;23.12;40.92
73934;BME280;62286;50.528;18.284;2022-12-05T21:25:28;99280.09;;;23.11;40.59
73934;BME280;62286;50.528;18.284;2022-12-05T21:27:53;99279.66;;;23.13;40.51
73934;BME280;62286;50.528;18.284;2022-12-05T21:30:18;99268.47;;;23.13;40.58
73934;BME280;62286;50.528;18.284;2022-12-05T21:32:43;99278.47;;;23.14;40.76
73934;BME280;62286;50.528;18.284;2022-12-05T21:35:09;99274.88;;;23.14;40.84
73934;BME280;62286;50.528;18.284;2022-12-05T21:37:35;99272.44;;;23.16;40.56
73934;BME280;62286;50.528;18.284;2022-12-05T21:40:00;99272.44;;;23.16;40.52
73934;BME280;62286;50.528;18.284;2022-12-05T21:42:25;99264.06;;;23.16;40.53
73934;BME280;62286;50.528;18.284;2022-12-05T21:44:50;99270.44;;;23.16;40.70
73934;BME280;62286;50.528;18.284;2022-12-05T21:47:15;99274.03;;;23.17;40.75
73934;BME280;62286;50.528;18.284;2022-12-05T21:49:41;99269.22;;;23.17;40.38
73934;BME280;62286;50.528;18.284;2022-12-05T21:52:06;99273.25;;;23.16;40.82
73934;BME280;62286;50.528;18.284;2022-12-05T21:54:31;99272.44;;;23.16;40.51
73934;BME280;62286;50.528;18.284;2022-12-05T21:56:56;99273.66;;;23.15;40.88
73934;BME280;62286;50.528;18.284;2022-12-05T21:59:21;99277.25;;;23.15;40.85
73934;BME280;62286;50.528;18.284;2022-12-05T22:01:46;99267.28;;;23.14;40.46
73934;BME280;62286;50.528;18.284;2022-12-05T22:04:11;99270.88;;;23.15;40.57
73934;BME280;62286;50.528;18.284;2022-12-05T22:06:36;99272.88;;;23.14;40.81
73934;BME280;62286;50.528;18.284;2022-12-05T22:09:02;99272.06;;;23.14;40.57
73934;BME280;62286;50.528;18.284;2022-12-05T22:11:27;99266.91;;;23.12;40.71
73934;BME280;62286;50.528;18.284;2022-12-05T22:13:52;99263.75;;;23.10;40.67
73934;BME280;62286;50.528;18.284;2022-12-05T22:16:18;99279.31;;;23.11;40.83
73934;BME280;62286;50.528;18.284;2022-12-05T22:18:43;99271.72;;;23.11;40.44
73934;BME280;62286;50.528;18.284;2022-12-05T22:21:12;99264.91;;;23.13;40.44
73934;BME280;62286;50.528;18.284;2022-12-05T22:23:38;99262.09;;;23.13;40.55
73934;BME280;62286;50.528;18.284;2022-12-05T22:28:28;99260.47;;;23.15;40.71
73934;BME280;62286;50.528;18.284;2022-12-05T22:30:54;99259.25;;;23.16;40.75
73934;BME280;62286;50.528;18.284;2022-12-05T22:33:20;99262.84;;;23.17;40.67
73934;BME280;62286;50.528;18.284;2022-12-05T22:35:51;99264.41;;;23.18;40.38
73934;BME280;62286;50.528;18.284;2022-12-05T22:38:18;99254.03;;;23.18;40.76
73934;BME280;62286;50.528;18.284;2022-12-05T22:40:44;99249.59;;;23.21;40.38
73934;BME280;62286;50.528;18.284;2022-12-05T22:43:09;99249.59;;;23.21;40.67
73934;BME280;62286;50.528;18.284;2022-12-05T22:45:34;99242.00;;;23.21;40.44
73934;BME280;62286;50.528;18.284;2022-12-05T22:47:59;99245.03;;;22.83;39.73
73934;BME280;62286;50.528;18.284;2022-12-05T22:50:24;99238.59;;;22.63;40.64
73934;BME280;62286;50.528;18.284;2022-12-05T22:52:49;99234.91;;;22.70;40.47
73934;BME280;62286;50.528;18.284;2022-12-05T22:55:15;99228.44;;;22.73;40.32
73934;BME280;62286;50.528;18.284;2022-12-05T22:57:40;99228.44;;;22.73;40.55
73934;BME280;62286;50.528;18.284;2022-12-05T23:00:05;99225.28;;;22.71;40.51
73934;BME280;62286;50.528;18.284;2022-12-05T23:02:30;99226.50;;;22.70;40.34
73934;BME280;62286;50.528;18.284;2022-12-05T23:04:55;99231.31;;;22.69;40.15
73934;BME280;62286;50.528;18.284;2022-12-05T23:07:21;99230.53;;;22.69;40.28
73934;BME280;62286;50.528;18.284;2022-12-05T23:09:46;99230.53;;;22.69;40.35
73934;BME280;62286;50.528;18.284;2022-12-05T23:12:11;99230.97;;;22.67;40.00
73934;BME280;62286;50.528;18.284;2022-12-05T23:14:36;99223.41;;;22.64;40.20
73934;BME280;62286;50.528;18.284;2022-12-05T23:17:01;99220.25;;;22.62;40.05
73934;BME280;62286;50.528;18.284;2022-12-05T23:19:26;99222.66;;;22.60;40.29
73934;BME280;62286;50.528;18.284;2022-12-05T23:21:51;99213.94;;;22.58;40.23
73934;BME280;62286;50.528;18.284;2022-12-05T23:24:16;99209.56;;;22.57;40.11
73934;BME280;62286;50.528;18.284;2022-12-05T23:26:42;99203.97;;;22.57;40.20
73934;BME280;62286;50.528;18.284;2022-12-05T23:29:08;99201.31;;;22.50;39.99
73934;BME280;62286;50.528;18.284;2022-12-05T23:31:33;99199.06;;;22.65;40.04
73934;BME280;62286;50.528;18.284;2022-12-05T23:33:58;99204.09;;;22.73;39.81
73934;BME280;62286;50.528;18.284;2022-12-05T23:36:24;99195.22;;;22.78;39.67
73934;BME280;62286;50.528;18.284;2022-12-05T23:38:49;99186.78;;;22.82;39.87
73934;BME280;62286;50.528;18.284;2022-12-05T23:41:18;99188.72;;;22.85;39.47
73934;BME280;62286;50.528;18.284;2022-12-05T23:43:43;99175.53;;;22.85;39.57
73934;BME280;62286;50.528;18.284;2022-12-05T23:46:10;99183.09;;;22.89;39.76
73934;BME280;62286;50.528;18.284;2022-12-05T23:48:35;99175.50;;;22.89;39.62
73934;BME280;62286;50.528;18.284;2022-12-05T23:51:05;99167.91;;;22.90;39.36
73934;BME280;62286;50.528;18.284;2022-12-05T23:53:32;99169.47;;;22.91;39.44
73934;BME280;62286;50.528;18.284;2022-12-05T23:56:00;99171.84;;;22.92;39.31
73934;BME280;62286;50.528;18.284;2022-12-05T23:58:27;99163.84;;;22.94;39.35
